createdAt,value
2018-09-20T00:00:10.877Z,90.59
2018-09-20T00:01:10.853Z,90.59
2018-09-20T00:02:10.830Z,89.92
2018-09-20T00:03:10.797Z,90.31
2018-09-20T00:04:10.778Z,90.12
2018-09-20T00:05:10.753Z,90.41
2018-09-20T00:06:10.734Z,89.15
2018-09-20T00:07:10.726Z,89.44
2018-09-20T00:08:10.697Z,90.12
2018-09-20T00:09:10.653Z,90.21
2018-09-20T00:10:10.634Z,89.25
2018-09-20T00:11:10.600Z,90.31
2018-09-20T00:12:10.576Z,90.69
2018-09-20T00:13:10.565Z,90.41
2018-09-20T00:14:10.534Z,90.59
2018-09-20T00:15:10.505Z,89.78
2018-09-20T00:16:10.483Z,90.21
2018-09-20T00:17:10.465Z,89.35
2018-09-20T00:18:10.438Z,89.54
2018-09-20T00:19:10.408Z,89.83
2018-09-20T00:20:10.388Z,90.12
2018-09-20T00:21:10.353Z,88.87
2018-09-20T00:22:10.344Z,89.01
2018-09-20T00:23:10.318Z,89.35
2018-09-20T00:24:10.282Z,89.25
2018-09-20T00:25:10.266Z,90.21
2018-09-20T00:26:10.243Z,90.02
2018-09-20T00:27:10.280Z,88.87
2018-09-20T00:28:10.203Z,90.21
2018-09-20T00:29:10.160Z,89.64
2018-09-20T00:30:10.142Z,89.92
2018-09-20T00:31:10.112Z,90.59
2018-09-20T00:32:10.094Z,89.92
2018-09-20T00:33:10.065Z,90.69
2018-09-20T00:34:10.034Z,89.88
2018-09-20T00:35:10.018Z,88.67
2018-09-20T00:36:09.991Z,89.69
2018-09-20T00:37:09.970Z,90.21
2018-09-20T00:38:09.939Z,89.98
2018-09-20T00:39:09.916Z,89.35
2018-09-20T00:40:09.896Z,89.92
2018-09-20T00:41:09.868Z,89.78
2018-09-20T00:42:09.844Z,89.98
2018-09-20T00:43:09.818Z,89.88
2018-09-20T00:44:09.791Z,89.88
2018-09-20T00:45:09.774Z,89.44
2018-09-20T00:46:09.741Z,90.07
2018-09-20T00:47:09.718Z,89.21
2018-09-20T00:48:09.699Z,90.07
2018-09-20T00:49:09.673Z,89.59
2018-09-20T00:50:09.653Z,89.78
2018-09-20T00:51:09.616Z,89.35
2018-09-20T00:52:09.600Z,89.30
2018-09-20T00:53:09.570Z,89.21
2018-09-20T00:54:09.545Z,89.21
2018-09-20T00:55:09.525Z,89.11
2018-09-20T00:56:09.495Z,89.54
2018-09-20T00:57:09.476Z,88.57
2018-09-20T00:58:09.446Z,89.59
2018-09-20T00:59:09.427Z,88.82
2018-09-20T01:00:09.395Z,89.11
2018-09-20T01:01:09.380Z,89.50
2018-09-20T01:02:09.347Z,88.73
2018-09-20T01:03:09.331Z,88.24
2018-09-20T01:04:09.306Z,88.24
2018-09-20T01:05:09.284Z,88.34
2018-09-20T01:06:09.257Z,89.01
2018-09-20T01:07:09.220Z,88.82
2018-09-20T01:08:09.207Z,88.24
2018-09-20T01:09:09.178Z,87.57
2018-09-20T01:10:09.157Z,86.32
2018-09-20T01:11:09.128Z,87.09
2018-09-20T01:12:09.105Z,86.61
2018-09-20T01:13:09.077Z,87.76
2018-09-20T01:14:09.059Z,86.80
2018-09-20T01:15:09.029Z,87.57
2018-09-20T01:16:09.009Z,86.71
2018-09-20T01:17:08.977Z,87.67
2018-09-20T01:18:08.963Z,87.09
2018-09-20T01:19:08.931Z,87.86
2018-09-20T01:20:08.914Z,86.99
2018-09-20T01:21:08.884Z,87.57
2018-09-20T01:22:08.856Z,86.95
2018-09-20T01:23:08.838Z,86.42
2018-09-20T01:24:08.813Z,86.90
2018-09-20T01:25:08.787Z,86.99
2018-09-20T01:26:08.765Z,86.61
2018-09-20T01:27:08.730Z,86.99
2018-09-20T01:28:08.709Z,85.61
2018-09-20T01:29:08.689Z,86.04
2018-09-20T01:30:08.658Z,85.65
2018-09-20T01:31:08.639Z,85.46
2018-09-20T01:32:08.616Z,85.65
2018-09-20T01:33:08.586Z,87.09
2018-09-20T01:34:08.559Z,86.42
2018-09-20T01:35:08.543Z,86.99
2018-09-20T01:36:08.517Z,85.99
2018-09-20T01:37:08.488Z,86.09
2018-09-20T01:38:08.473Z,86.47
2018-09-20T01:39:08.438Z,85.89
2018-09-20T01:40:08.412Z,83.87
2018-09-20T01:41:08.391Z,85.32
2018-09-20T01:42:08.367Z,85.22
2018-09-20T01:43:08.338Z,84.36
2018-09-20T01:44:08.313Z,83.30
2018-09-20T01:45:08.297Z,82.53
2018-09-20T01:46:08.265Z,83.49
2018-09-20T01:47:08.249Z,83.01
2018-09-20T01:48:08.220Z,83.49
2018-09-20T01:49:08.189Z,82.92
2018-09-20T01:50:08.172Z,83.97
2018-09-20T01:51:08.147Z,83.87
2018-09-20T01:52:08.117Z,83.20
2018-09-20T01:53:08.094Z,83.30
2018-09-20T01:54:08.063Z,83.20
2018-09-20T01:55:08.049Z,81.76
2018-09-20T01:56:08.012Z,82.24
2018-09-20T01:57:08.001Z,81.67
2018-09-20T01:58:07.967Z,82.24
2018-09-20T01:59:07.937Z,81.57
2018-09-20T02:00:07.924Z,81.76
2018-09-20T02:01:07.892Z,81.57
2018-09-20T02:02:07.873Z,81.96
2018-09-20T02:03:07.845Z,82.43
2018-09-20T02:04:07.817Z,82.73
2018-09-20T02:05:07.809Z,82.63
2018-09-20T02:06:07.776Z,81.57
2018-09-20T02:07:07.742Z,82.30
2018-09-20T02:08:07.723Z,81.67
2018-09-20T02:09:07.697Z,81.28
2018-09-20T02:10:07.669Z,81.57
2018-09-20T02:11:07.648Z,81.96
2018-09-20T02:12:07.622Z,81.67
2018-09-20T02:13:07.606Z,81.67
2018-09-20T02:14:07.571Z,82.43
2018-09-20T02:15:07.556Z,82.05
2018-09-20T02:16:07.525Z,81.28
2018-09-20T02:17:07.501Z,81.19
2018-09-20T02:18:07.475Z,81.82
2018-09-20T02:19:07.445Z,81.24
2018-09-20T02:20:07.425Z,80.09
2018-09-20T02:21:07.394Z,80.86
2018-09-20T02:22:07.372Z,80.86
2018-09-20T02:23:07.351Z,80.66
2018-09-20T02:24:07.325Z,80.28
2018-09-20T02:25:07.301Z,80.96
2018-09-20T02:26:07.284Z,80.19
2018-09-20T02:27:07.250Z,80.38
2018-09-20T02:28:07.226Z,80.38
2018-09-20T02:29:07.199Z,80.57
2018-09-20T02:30:07.189Z,79.71
2018-09-20T02:31:07.147Z,80.66
2018-09-20T02:32:07.131Z,80.38
2018-09-20T02:33:07.097Z,80.57
2018-09-20T02:34:07.074Z,80.38
2018-09-20T02:35:07.055Z,80.28
2018-09-20T02:36:07.024Z,80.71
2018-09-20T02:37:07.006Z,79.90
2018-09-20T02:38:06.980Z,79.99
2018-09-20T02:39:06.955Z,79.90
2018-09-20T02:40:06.924Z,79.99
2018-09-20T02:41:06.907Z,80.47
2018-09-20T02:42:06.877Z,79.94
2018-09-20T02:43:06.853Z,80.42
2018-09-20T02:44:06.833Z,80.42
2018-09-20T02:45:06.800Z,81.15
2018-09-20T02:46:06.779Z,79.71
2018-09-20T02:47:06.752Z,79.65
2018-09-20T02:48:06.739Z,80.51
2018-09-20T02:49:06.703Z,81.34
2018-09-20T02:50:06.680Z,81.15
2018-09-20T02:51:06.657Z,80.57
2018-09-20T02:52:06.629Z,80.66
2018-09-20T02:53:06.611Z,79.71
2018-09-20T02:54:06.580Z,79.13
2018-09-20T02:55:06.557Z,79.80
2018-09-20T02:56:06.529Z,79.32
2018-09-20T02:57:06.508Z,80.47
2018-09-20T02:58:06.482Z,80.76
2018-09-20T02:59:06.575Z,79.61
2018-09-20T03:00:06.432Z,79.32
2018-09-20T03:01:06.404Z,79.52
2018-09-20T03:02:06.380Z,78.84
2018-09-20T03:03:06.357Z,79.32
2018-09-20T03:04:06.329Z,78.36
2018-09-20T03:05:06.311Z,78.55
2018-09-20T03:06:06.279Z,77.98
2018-09-20T03:07:06.252Z,77.59
2018-09-20T03:08:06.235Z,77.69
2018-09-20T03:09:06.214Z,76.92
2018-09-20T03:10:06.182Z,78.65
2018-09-20T03:11:06.154Z,77.94
2018-09-20T03:12:06.126Z,77.75
2018-09-20T03:13:06.111Z,77.75
2018-09-20T03:14:06.087Z,76.98
2018-09-20T03:15:06.057Z,76.12
2018-09-20T03:16:06.037Z,75.63
2018-09-20T03:17:06.009Z,75.63
2018-09-20T03:18:05.980Z,75.92
2018-09-20T03:19:05.960Z,75.63
2018-09-20T03:20:05.930Z,77.26
2018-09-20T03:21:05.912Z,75.82
2018-09-20T03:22:05.881Z,75.15
2018-09-20T03:23:05.852Z,74.48
2018-09-20T03:24:05.854Z,74.39
2018-09-20T03:25:05.809Z,74.39
2018-09-20T03:26:05.787Z,73.81
2018-09-20T03:27:05.754Z,73.62
2018-09-20T03:28:05.731Z,72.85
2018-09-20T03:29:05.710Z,73.43
2018-09-20T03:30:05.679Z,73.72
2018-09-20T03:31:05.664Z,73.91
2018-09-20T03:32:05.633Z,74.68
2018-09-20T03:33:05.607Z,74.48
2018-09-20T03:34:05.588Z,74.10
2018-09-20T03:35:05.559Z,74.01
2018-09-20T03:36:05.537Z,72.37
2018-09-20T03:37:05.504Z,73.24
2018-09-20T03:38:05.484Z,73.72
2018-09-20T03:39:05.466Z,73.81
2018-09-20T03:40:05.434Z,72.95
2018-09-20T03:41:05.407Z,72.47
2018-09-20T03:42:05.385Z,72.56
2018-09-20T03:43:05.356Z,73.33
2018-09-20T03:44:05.334Z,73.91
2018-09-20T03:45:05.309Z,73.72
2018-09-20T03:46:05.284Z,72.37
2018-09-20T03:47:05.262Z,73.43
2018-09-20T03:48:05.232Z,72.85
2018-09-20T03:49:05.223Z,72.56
2018-09-20T03:50:05.180Z,72.56
2018-09-20T03:51:05.156Z,73.14
2018-09-20T03:52:05.132Z,73.04
2018-09-20T03:53:05.119Z,72.66
2018-09-20T03:54:05.093Z,71.61
2018-09-20T03:55:05.054Z,72.37
2018-09-20T03:56:05.041Z,71.41
2018-09-20T03:57:05.010Z,71.12
2018-09-20T03:58:04.986Z,71.70
2018-09-20T03:59:04.960Z,69.87
2018-09-20T04:00:04.934Z,71.41
2018-09-20T04:01:04.910Z,72.08
2018-09-20T04:02:04.890Z,72.47
2018-09-20T04:03:04.855Z,72.18
2018-09-20T04:04:04.837Z,71.80
2018-09-20T04:05:04.808Z,69.49
2018-09-20T04:06:04.788Z,69.97
2018-09-20T04:07:04.760Z,70.36
2018-09-20T04:08:04.737Z,72.28
2018-09-20T04:09:04.707Z,71.61
2018-09-20T04:10:04.684Z,71.61
2018-09-20T04:11:04.662Z,71.41
2018-09-20T04:12:04.643Z,71.61
2018-09-20T04:13:04.615Z,70.55
2018-09-20T04:14:04.587Z,71.61
2018-09-20T04:15:04.568Z,71.22
2018-09-20T04:16:04.543Z,69.87
2018-09-20T04:17:04.506Z,71.22
2018-09-20T04:18:04.483Z,71.41
2018-09-20T04:19:04.461Z,70.93
2018-09-20T04:20:04.431Z,70.07
2018-09-20T04:21:04.435Z,70.17
2018-09-20T04:22:04.398Z,70.17
2018-09-20T04:23:04.366Z,69.11
2018-09-20T04:24:04.343Z,69.49
2018-09-20T04:25:04.310Z,70.17
2018-09-20T04:26:04.283Z,69.30
2018-09-20T04:27:04.305Z,70.07
2018-09-20T04:28:04.237Z,69.97
2018-09-20T04:29:04.211Z,71.70
2018-09-20T04:30:04.183Z,71.22
2018-09-20T04:31:04.160Z,71.41
2018-09-20T04:32:04.142Z,70.93
2018-09-20T04:33:04.105Z,70.07
2018-09-20T04:34:04.085Z,70.07
2018-09-20T04:35:04.057Z,69.97
2018-09-20T04:36:04.034Z,69.59
2018-09-20T04:37:04.014Z,69.68
2018-09-20T04:38:03.991Z,69.68
2018-09-20T04:39:03.960Z,70.64
2018-09-20T04:40:03.941Z,69.87
2018-09-20T04:41:03.911Z,69.87
2018-09-20T04:42:03.881Z,69.01
2018-09-20T04:43:03.865Z,69.30
2018-09-20T04:44:03.831Z,69.87
2018-09-20T04:45:03.813Z,69.78
2018-09-20T04:46:03.785Z,70.17
2018-09-20T04:47:03.766Z,68.24
2018-09-20T04:48:03.735Z,70.36
2018-09-20T04:49:03.707Z,70.17
2018-09-20T04:50:03.688Z,67.96
2018-09-20T04:51:03.654Z,68.82
2018-09-20T04:52:03.635Z,67.96
2018-09-20T04:53:03.612Z,68.73
2018-09-20T04:54:03.582Z,67.96
2018-09-20T04:55:03.558Z,67.47
2018-09-20T04:56:03.535Z,67.96
2018-09-20T04:57:03.506Z,68.34
2018-09-20T04:58:03.488Z,67.96
2018-09-20T04:59:03.458Z,69.78
2018-09-20T05:00:03.506Z,69.68
2018-09-20T05:01:03.412Z,69.01
2018-09-20T05:02:03.390Z,68.34
2018-09-20T05:03:03.356Z,69.40
2018-09-20T05:04:03.337Z,67.86
2018-09-20T05:05:03.308Z,67.96
2018-09-20T05:06:03.285Z,67.96
2018-09-20T05:07:03.262Z,68.53
2018-09-20T05:08:03.232Z,67.76
2018-09-20T05:09:03.214Z,67.76
2018-09-20T05:10:03.185Z,66.71
2018-09-20T05:11:03.159Z,68.30
2018-09-20T05:12:03.135Z,66.61
2018-09-20T05:13:03.111Z,66.67
2018-09-20T05:14:03.087Z,66.10
2018-09-20T05:15:03.128Z,66.03
2018-09-20T05:16:03.033Z,67.38
2018-09-20T05:17:03.013Z,67.67
2018-09-20T05:18:02.992Z,66.96
2018-09-20T05:19:02.956Z,66.52
2018-09-20T05:20:02.938Z,67.25
2018-09-20T05:21:02.909Z,66.19
2018-09-20T05:22:02.890Z,66.29
2018-09-20T05:23:02.880Z,66.19
2018-09-20T05:24:02.838Z,65.14
2018-09-20T05:25:02.808Z,65.43
2018-09-20T05:26:02.795Z,65.14
2018-09-20T05:27:02.764Z,66.00
2018-09-20T05:28:02.746Z,64.37
2018-09-20T05:29:02.709Z,65.23
2018-09-20T05:30:02.678Z,65.14
2018-09-20T05:31:02.664Z,64.47
2018-09-20T05:32:02.634Z,64.18
2018-09-20T05:33:02.611Z,64.28
2018-09-20T05:34:02.579Z,62.74
2018-09-20T05:35:02.561Z,62.74
2018-09-20T05:36:02.528Z,62.93
2018-09-20T05:37:02.516Z,63.51
2018-09-20T05:38:02.495Z,64.12
2018-09-20T05:39:02.452Z,64.28
2018-09-20T05:40:02.438Z,63.25
2018-09-20T05:41:02.406Z,63.89
2018-09-20T05:42:02.380Z,63.54
2018-09-20T05:43:02.355Z,63.83
2018-09-20T05:44:02.337Z,64.22
2018-09-20T05:45:02.303Z,64.56
2018-09-20T05:46:02.287Z,64.31
2018-09-20T05:47:02.253Z,63.45
2018-09-20T05:48:02.230Z,64.79
2018-09-20T05:49:02.202Z,65.17
2018-09-20T05:50:02.191Z,64.89
2018-09-20T05:51:02.152Z,65.08
2018-09-20T05:52:02.138Z,63.83
2018-09-20T05:53:02.113Z,65.17
2018-09-20T05:54:02.078Z,64.69
2018-09-20T05:55:02.061Z,64.59
2018-09-20T05:56:02.029Z,64.79
2018-09-20T05:57:02.011Z,65.36
2018-09-20T05:58:01.987Z,65.08
2018-09-20T05:59:01.956Z,65.17
2018-09-20T06:00:01.947Z,64.69
2018-09-20T06:01:01.904Z,65.27
2018-09-20T06:02:01.894Z,64.02
2018-09-20T06:03:01.859Z,63.83
2018-09-20T06:04:01.827Z,64.31
2018-09-20T06:05:01.808Z,63.54
2018-09-20T06:06:01.783Z,64.02
2018-09-20T06:07:01.758Z,63.06
2018-09-20T06:08:01.724Z,63.64
2018-09-20T06:09:01.712Z,64.02
2018-09-20T06:10:01.689Z,63.06
2018-09-20T06:11:01.652Z,63.06
2018-09-20T06:12:01.643Z,64.31
2018-09-20T06:13:01.607Z,64.22
2018-09-20T06:14:01.583Z,63.83
2018-09-20T06:15:01.554Z,64.31
2018-09-20T06:16:01.534Z,63.92
2018-09-20T06:17:01.511Z,63.45
2018-09-20T06:18:01.479Z,65.46
2018-09-20T06:19:01.457Z,63.25
2018-09-20T06:20:01.428Z,64.22
2018-09-20T06:21:01.406Z,64.31
2018-09-20T06:22:01.388Z,63.06
2018-09-20T06:23:01.350Z,63.09
2018-09-20T06:24:01.335Z,63.28
2018-09-20T06:25:01.301Z,64.40
2018-09-20T06:26:01.279Z,63.92
2018-09-20T06:27:01.262Z,65.20
2018-09-20T06:28:01.232Z,66.26
2018-09-20T06:29:01.210Z,66.13
2018-09-20T06:30:01.190Z,64.82
2018-09-20T06:31:01.151Z,64.15
2018-09-20T06:32:01.135Z,66.07
2018-09-20T06:33:01.109Z,65.11
2018-09-20T06:34:01.079Z,64.25
2018-09-20T06:35:01.128Z,65.69
2018-09-20T06:36:01.031Z,66.26
2018-09-20T06:37:01.055Z,66.16
2018-09-20T06:38:00.985Z,66.16
2018-09-20T06:39:00.952Z,65.20
2018-09-20T06:40:00.967Z,66.03
2018-09-20T06:41:00.977Z,66.07
2018-09-20T06:42:00.877Z,66.07
2018-09-20T06:43:00.859Z,65.88
2018-09-20T06:44:00.829Z,65.11
2018-09-20T06:45:00.816Z,65.59
2018-09-20T06:46:00.778Z,66.26
2018-09-20T06:47:00.754Z,65.59
2018-09-20T06:48:00.736Z,66.16
2018-09-20T06:49:00.707Z,65.78
2018-09-20T06:50:00.691Z,65.88
2018-09-20T06:51:00.651Z,66.26
2018-09-20T06:52:00.630Z,66.93
2018-09-20T06:53:00.602Z,67.70
2018-09-20T06:54:00.583Z,67.70
2018-09-20T06:55:00.565Z,67.41
2018-09-20T06:56:00.535Z,67.41
2018-09-20T06:57:00.505Z,67.99
2018-09-20T06:58:00.487Z,68.47
2018-09-20T06:59:00.461Z,67.93
2018-09-20T07:00:00.430Z,68.51
2018-09-20T07:01:00.411Z,68.21
2018-09-20T07:02:00.386Z,69.27
2018-09-20T07:03:00.424Z,70.14
2018-09-20T07:04:00.339Z,69.75
2018-09-20T07:05:00.303Z,69.95
2018-09-20T07:06:00.281Z,68.98
2018-09-20T07:07:00.262Z,70.04
2018-09-20T07:08:00.230Z,70.04
2018-09-20T07:09:00.206Z,70.14
2018-09-20T07:10:00.187Z,70.46
2018-09-20T07:11:00.157Z,71.19
2018-09-20T07:12:00.134Z,70.27
2018-09-20T07:13:00.115Z,70.43
2018-09-20T07:14:00.084Z,72.48
2018-09-20T07:15:00.080Z,72.77
2018-09-20T07:16:00.033Z,72.77
2018-09-20T07:17:00.012Z,72.67
2018-09-20T07:17:59.984Z,72.67
2018-09-20T07:19:00.011Z,74.40
2018-09-20T07:19:59.933Z,73.83
2018-09-20T07:20:59.916Z,74.69
2018-09-20T07:21:59.892Z,74.98
2018-09-20T07:22:59.864Z,75.17
2018-09-20T07:23:59.833Z,77.90
2018-09-20T07:24:59.828Z,77.61
2018-09-20T07:25:59.790Z,77.13
2018-09-20T07:26:59.767Z,77.71
2018-09-20T07:27:59.738Z,77.81
2018-09-20T07:28:59.708Z,78.86
2018-09-20T07:29:59.691Z,78.28
2018-09-20T07:30:59.665Z,79.35
2018-09-20T07:31:59.632Z,79.53
2018-09-20T07:32:59.618Z,80.02
2018-09-20T07:33:59.592Z,79.73
2018-09-20T07:34:59.560Z,80.79
2018-09-20T07:35:59.550Z,79.58
2018-09-20T07:36:59.519Z,80.02
2018-09-20T07:37:59.496Z,79.58
2018-09-20T07:38:59.494Z,80.35
2018-09-20T07:39:59.500Z,80.25
2018-09-20T07:40:59.417Z,81.50
2018-09-20T07:41:59.396Z,81.30
2018-09-20T07:42:59.362Z,82.75
2018-09-20T07:43:59.342Z,81.98
2018-09-20T07:44:59.318Z,81.60
2018-09-20T07:45:59.301Z,81.50
2018-09-20T07:46:59.270Z,81.40
2018-09-20T07:47:59.237Z,82.17
2018-09-20T07:48:59.220Z,81.50
2018-09-20T07:49:59.194Z,82.27
2018-09-20T07:50:59.172Z,84.19
2018-09-20T07:51:59.143Z,82.65
2018-09-20T07:52:59.118Z,83.04
2018-09-20T07:53:59.090Z,82.50
2018-09-20T07:54:59.071Z,81.93
2018-09-20T07:55:59.045Z,85.78
2018-09-20T07:56:59.020Z,84.19
2018-09-20T07:57:58.999Z,84.81
2018-09-20T07:58:58.966Z,85.39
2018-09-20T07:59:58.948Z,84.91
2018-09-20T08:00:58.918Z,84.23
2018-09-20T08:01:58.964Z,84.43
2018-09-20T08:02:58.878Z,86.07
2018-09-20T08:03:58.841Z,85.97
2018-09-20T08:04:58.826Z,86.65
2018-09-20T08:05:58.807Z,87.90
2018-09-20T08:06:58.785Z,87.51
2018-09-20T08:07:58.751Z,88.57
2018-09-20T08:08:58.721Z,88.38
2018-09-20T08:09:58.696Z,88.61
2018-09-20T08:10:58.681Z,88.42
2018-09-20T08:11:58.654Z,88.23
2018-09-20T08:12:58.665Z,87.17
2018-09-20T08:13:58.595Z,88.23
2018-09-20T08:14:58.581Z,88.13
2018-09-20T08:15:58.551Z,88.13
2018-09-20T08:16:58.527Z,89.09
2018-09-20T08:17:58.506Z,90.06
2018-09-20T08:18:58.487Z,89.86
2018-09-20T08:19:58.460Z,89.53
2018-09-20T08:20:58.434Z,89.48
2018-09-20T08:21:58.399Z,90.97
2018-09-20T08:22:58.385Z,90.58
2018-09-20T08:23:58.357Z,90.83
2018-09-20T08:24:58.331Z,90.00
2018-09-20T08:25:58.305Z,89.77
2018-09-20T08:26:58.280Z,90.10
2018-09-20T08:27:58.330Z,90.10
2018-09-20T08:28:58.231Z,89.43
2018-09-20T08:29:58.217Z,90.20
2018-09-20T08:30:58.180Z,90.58
2018-09-20T08:31:58.162Z,91.06
2018-09-20T08:32:58.131Z,89.91
2018-09-20T08:33:58.109Z,91.26
2018-09-20T08:34:58.091Z,91.16
2018-09-20T08:35:58.059Z,90.78
2018-09-20T08:36:58.086Z,90.88
2018-09-20T08:37:58.018Z,90.48
2018-09-20T08:38:57.988Z,92.41
2018-09-20T08:39:57.965Z,91.36
2018-09-20T08:40:57.943Z,90.39
2018-09-20T08:41:57.922Z,91.36
2018-09-20T08:42:57.896Z,91.45
2018-09-20T08:43:57.868Z,91.55
2018-09-20T08:44:57.847Z,91.83
2018-09-20T08:45:57.822Z,92.03
2018-09-20T08:46:57.794Z,92.22
2018-09-20T08:47:57.766Z,92.80
2018-09-20T08:48:57.770Z,92.03
2018-09-20T08:49:57.726Z,91.83
2018-09-20T08:50:57.708Z,90.78
2018-09-20T08:51:57.675Z,91.74
2018-09-20T08:52:57.645Z,91.64
2018-09-20T08:53:57.625Z,93.66
2018-09-20T08:54:57.602Z,93.19
2018-09-20T08:55:57.571Z,92.41
2018-09-20T08:56:57.620Z,92.61
2018-09-20T08:57:57.523Z,91.20
2018-09-20T08:58:57.506Z,91.69
2018-09-20T08:59:57.483Z,91.40
2018-09-20T09:00:57.453Z,90.82
2018-09-20T09:01:57.433Z,91.78
2018-09-20T09:02:57.399Z,92.65
2018-09-20T09:03:57.382Z,92.36
2018-09-20T09:04:57.356Z,93.33
2018-09-20T09:05:57.328Z,92.36
2018-09-20T09:06:57.309Z,93.23
2018-09-20T09:07:57.285Z,94.63
2018-09-20T09:08:57.257Z,94.82
2018-09-20T09:09:57.237Z,94.24
2018-09-20T09:10:57.208Z,93.47
2018-09-20T09:11:57.223Z,93.85
2018-09-20T09:12:57.161Z,93.28
2018-09-20T09:13:57.135Z,95.01
2018-09-20T09:14:57.121Z,94.43
2018-09-20T09:15:57.087Z,95.21
2018-09-20T09:16:57.069Z,94.82
2018-09-20T09:17:57.040Z,94.24
2018-09-20T09:18:57.017Z,94.43
2018-09-20T09:19:56.988Z,95.11
2018-09-20T09:20:56.968Z,94.92
2018-09-20T09:21:56.940Z,94.82
2018-09-20T09:22:56.923Z,96.56
2018-09-20T09:23:56.900Z,95.21
2018-09-20T09:24:56.865Z,94.82
2018-09-20T09:25:56.842Z,94.34
2018-09-20T09:26:56.822Z,94.53
2018-09-20T09:27:56.801Z,95.40
2018-09-20T09:28:56.770Z,94.53
2018-09-20T09:29:56.752Z,94.38
2018-09-20T09:30:56.722Z,95.06
2018-09-20T09:31:56.699Z,94.96
2018-09-20T09:32:56.679Z,94.87
2018-09-20T09:33:56.653Z,95.74
2018-09-20T09:34:56.628Z,95.16
2018-09-20T09:35:56.606Z,94.77
2018-09-20T09:36:56.585Z,95.93
2018-09-20T09:37:56.629Z,95.93
2018-09-20T09:38:56.865Z,95.06
2018-09-20T09:39:57.035Z,94.48
2018-09-20T09:40:56.822Z,94.38
2018-09-20T09:41:57.013Z,95.16
2018-09-20T09:42:56.780Z,96.12
2018-09-20T09:43:56.765Z,95.59
2018-09-20T09:44:57.054Z,97.14
2018-09-20T09:45:57.109Z,97.42
2018-09-20T09:46:56.341Z,96.94
2018-09-20T09:47:56.363Z,96.75
2018-09-20T09:48:56.296Z,96.75
2018-09-20T09:49:56.263Z,96.84
2018-09-20T09:50:56.247Z,96.66
2018-09-20T09:51:56.225Z,96.84
2018-09-20T09:52:56.196Z,96.94
2018-09-20T09:53:56.164Z,96.80
2018-09-20T09:54:56.191Z,96.94
2018-09-20T09:55:56.129Z,96.89
2018-09-20T09:56:56.094Z,96.61
2018-09-20T09:57:56.079Z,96.70
2018-09-20T09:58:56.051Z,96.22
2018-09-20T09:59:56.140Z,96.22
2018-09-20T10:00:55.998Z,95.35
2018-09-20T10:01:55.976Z,95.73
2018-09-20T10:02:55.959Z,95.64
2018-09-20T10:03:55.927Z,94.57
2018-09-20T10:04:55.912Z,93.61
2018-09-20T10:05:55.883Z,94.09
2018-09-20T10:06:55.860Z,93.13
2018-09-20T10:07:55.836Z,92.55
2018-09-20T10:08:55.809Z,93.51
2018-09-20T10:09:55.809Z,94.48
2018-09-20T10:10:55.765Z,94.48
2018-09-20T10:11:55.785Z,94.57
2018-09-20T10:12:55.716Z,93.51
2018-09-20T10:13:55.714Z,94.53
2018-09-20T10:14:55.675Z,93.17
2018-09-20T10:15:55.649Z,91.67
2018-09-20T10:16:55.619Z,92.65
2018-09-20T10:17:55.601Z,92.21
2018-09-20T10:18:55.574Z,90.66
2018-09-20T10:19:55.606Z,90.66
2018-09-20T10:20:55.535Z,90.27
2018-09-20T10:21:55.507Z,90.37
2018-09-20T10:22:55.476Z,88.82
2018-09-20T10:23:55.470Z,89.69
2018-09-20T10:24:55.425Z,89.50
2018-09-20T10:25:55.407Z,88.34
2018-09-20T10:26:55.388Z,90.12
2018-09-20T10:27:55.390Z,87.03
2018-09-20T10:28:55.341Z,87.03
2018-09-20T10:29:55.318Z,84.42
2018-09-20T10:30:55.377Z,84.61
2018-09-20T10:31:55.268Z,82.78
2018-09-20T10:32:55.236Z,83.55
2018-09-20T10:33:55.268Z,82.29
2018-09-20T10:34:55.198Z,83.84
2018-09-20T10:35:55.169Z,84.52
2018-09-20T10:36:55.151Z,84.22
2018-09-20T10:37:55.125Z,80.07
2018-09-20T10:38:55.098Z,78.13
2018-09-20T10:39:55.075Z,79.10
2018-09-20T10:40:55.057Z,78.17
2018-09-20T10:41:55.031Z,77.94
2018-09-20T10:42:55.006Z,76.68
2018-09-20T10:43:54.990Z,76.10
2018-09-20T10:44:54.952Z,72.81
2018-09-20T10:45:54.928Z,73.68
2018-09-20T10:46:54.918Z,74.11
2018-09-20T10:47:54.883Z,76.01
2018-09-20T10:48:54.868Z,78.46
2018-09-20T10:49:54.842Z,80.30
2018-09-20T10:50:54.814Z,80.20
2018-09-20T10:51:54.796Z,78.36
2018-09-20T10:52:54.767Z,78.27
2018-09-20T10:53:54.752Z,78.36
2018-09-20T10:54:54.726Z,78.46
2018-09-20T10:55:54.700Z,79.24
2018-09-20T10:56:54.674Z,81.85
2018-09-20T10:57:54.652Z,78.75
2018-09-20T10:58:54.634Z,77.40
2018-09-20T10:59:54.608Z,77.50
2018-09-20T11:00:54.581Z,75.75
2018-09-20T11:01:54.562Z,76.43
2018-09-20T11:02:54.551Z,74.01
2018-09-20T11:03:54.508Z,71.88
2018-09-20T11:04:54.491Z,72.36
2018-09-20T11:05:54.458Z,74.73
2018-09-20T11:06:54.441Z,75.11
2018-09-20T11:07:54.414Z,74.05
2018-09-20T11:08:54.392Z,73.08
2018-09-20T11:09:54.369Z,71.82
2018-09-20T11:10:54.361Z,69.56
2018-09-20T11:11:54.323Z,66.56
2018-09-20T11:12:54.296Z,66.95
2018-09-20T11:13:54.270Z,69.37
2018-09-20T11:14:54.255Z,70.43
2018-09-20T11:15:54.227Z,69.66
2018-09-20T11:16:54.204Z,69.27
2018-09-20T11:17:54.177Z,68.53
2018-09-20T11:18:54.163Z,69.59
2018-09-20T11:19:54.129Z,66.60
2018-09-20T11:20:54.117Z,65.53
2018-09-20T11:21:54.092Z,66.78
2018-09-20T11:22:54.059Z,64.53
2018-09-20T11:23:54.043Z,65.82
2018-09-20T11:24:54.011Z,65.69
2018-09-20T11:25:54.056Z,65.40
2018-09-20T11:26:53.965Z,65.59
2018-09-20T11:27:53.950Z,65.20
2018-09-20T11:28:53.921Z,65.11
2018-09-20T11:29:53.896Z,65.69
2018-09-20T11:30:53.880Z,63.85
2018-09-20T11:31:53.847Z,63.85
2018-09-20T11:32:53.832Z,64.14
2018-09-20T11:33:53.813Z,64.24
2018-09-20T11:34:53.779Z,65.30
2018-09-20T11:35:53.755Z,64.62
2018-09-20T11:36:53.736Z,65.20
2018-09-20T11:37:53.721Z,65.50
2018-09-20T11:38:53.690Z,65.30
2018-09-20T11:39:53.663Z,65.98
2018-09-20T11:40:53.640Z,65.50
2018-09-20T11:41:53.612Z,65.79
2018-09-20T11:42:53.594Z,64.04
2018-09-20T11:43:53.568Z,63.21
2018-09-20T11:44:53.566Z,62.98
2018-09-20T11:45:53.519Z,62.92
2018-09-20T11:46:53.492Z,63.98
2018-09-20T11:47:53.474Z,63.11
2018-09-20T11:48:53.451Z,63.01
2018-09-20T11:49:53.428Z,61.85
2018-09-20T11:50:53.401Z,62.92
2018-09-20T11:51:53.377Z,61.66
2018-09-20T11:52:53.362Z,62.53
2018-09-20T11:53:53.330Z,62.82
2018-09-20T11:54:53.317Z,61.08
2018-09-20T11:55:53.290Z,61.46
2018-09-20T11:56:53.259Z,61.27
2018-09-20T11:57:53.239Z,60.30
2018-09-20T11:58:53.217Z,59.82
2018-09-20T11:59:53.188Z,59.63
2018-09-20T12:00:53.166Z,59.43
2018-09-20T12:01:53.206Z,59.14
2018-09-20T12:02:53.121Z,59.82
2018-09-20T12:03:53.093Z,59.82
2018-09-20T12:04:53.080Z,59.53
2018-09-20T12:05:53.058Z,59.72
2018-09-20T12:06:53.023Z,59.75
2018-09-20T12:07:53.007Z,57.62
2018-09-20T12:08:52.978Z,57.14
2018-09-20T12:09:52.957Z,57.23
2018-09-20T12:10:52.944Z,57.23
2018-09-20T12:11:52.912Z,58.30
2018-09-20T12:12:52.893Z,58.98
2018-09-20T12:13:52.863Z,58.78
2018-09-20T12:14:52.843Z,58.33
2018-09-20T12:15:52.817Z,57.53
2018-09-20T12:16:52.797Z,57.71
2018-09-20T12:17:52.768Z,58.59
2018-09-20T12:18:52.753Z,58.39
2018-09-20T12:19:52.764Z,58.62
2018-09-20T12:20:52.698Z,58.14
2018-09-20T12:21:52.673Z,58.14
2018-09-20T12:22:52.655Z,58.33
2018-09-20T12:23:52.626Z,58.52
2018-09-20T12:24:52.616Z,58.33
2018-09-20T12:25:52.604Z,57.04
2018-09-20T12:26:52.557Z,56.39
2018-09-20T12:27:52.541Z,56.77
2018-09-20T12:28:52.508Z,55.88
2018-09-20T12:29:52.495Z,55.13
2018-09-20T12:30:52.462Z,56.39
2018-09-20T12:31:52.518Z,56.97
2018-09-20T12:32:52.440Z,56.68
2018-09-20T12:33:52.396Z,56.39
2018-09-20T12:34:52.378Z,56.49
2018-09-20T12:35:52.400Z,55.90
2018-09-20T12:36:52.329Z,56.20
2018-09-20T12:37:52.307Z,56.49
2018-09-20T12:38:52.336Z,56.00
2018-09-20T12:39:52.252Z,55.52
2018-09-20T12:40:52.234Z,55.22
2018-09-20T12:41:52.204Z,56.29
2018-09-20T12:42:52.214Z,55.22
2018-09-20T12:43:52.160Z,54.94
2018-09-20T12:44:52.143Z,54.94
2018-09-20T12:45:52.112Z,53.80
2018-09-20T12:46:52.103Z,53.87
2018-09-20T12:47:52.064Z,53.87
2018-09-20T12:48:52.048Z,52.90
2018-09-20T12:49:52.022Z,53.19
2018-09-20T12:50:51.999Z,53.00
2018-09-20T12:51:51.975Z,53.49